sensor_id;sensor_type;location;lat;lon;timestamp;P1;durP1;ratioP1;P2;durP2;ratioP2
21860;SDS011;11095;48.066;8.540;2023-07-20T00:01:43;3.08;;;2.28;;
21860;SDS011;11095;48.066;8.540;2023-07-20T00:04:10;5.72;;;2.40;;
21860;SDS011;11095;48.066;8.540;2023-07-20T00:06:36;4.30;;;2.40;;
21860;SDS011;11095;48.066;8.540;2023-07-20T00:09:05;2.87;;;2.57;;
21860;SDS011;11095;48.066;8.540;2023-07-20T00:11:34;3.75;;;2.28;;
21860;SDS011;11095;48.066;8.540;2023-07-20T00:14:01;3.35;;;2.50;;
21860;SDS011;11095;48.066;8.540;2023-07-20T00:16:27;2.47;;;1.90;;
21860;SDS011;11095;48.066;8.540;2023-07-20T00:18:53;5.05;;;2.50;;
21860;SDS011;11095;48.066;8.540;2023-07-20T00:21:18;5.15;;;2.50;;
21860;SDS011;11095;48.066;8.540;2023-07-20T00:23:45;3.30;;;2.22;;
21860;SDS011;11095;48.066;8.540;2023-07-20T00:26:10;3.50;;;2.72;;
21860;SDS011;11095;48.066;8.540;2023-07-20T00:28:36;5.53;;;2.85;;
21860;SDS011;11095;48.066;8.540;2023-07-20T00:31:01;5.00;;;2.65;;
21860;SDS011;11095;48.066;8.540;2023-07-20T00:33:27;4.72;;;2.60;;
21860;SDS011;11095;48.066;8.540;2023-07-20T00:35:53;3.63;;;2.83;;
21860;SDS011;11095;48.066;8.540;2023-07-20T00:38:19;4.07;;;2.70;;
21860;SDS011;11095;48.066;8.540;2023-07-20T00:40:45;4.40;;;2.83;;
21860;SDS011;11095;48.066;8.540;2023-07-20T00:43:11;8.00;;;3.20;;
21860;SDS011;11095;48.066;8.540;2023-07-20T00:45:36;5.18;;;3.10;;
21860;SDS011;11095;48.066;8.540;2023-07-20T00:48:03;4.00;;;2.97;;
21860;SDS011;11095;48.066;8.540;2023-07-20T00:50:31;5.47;;;3.10;;
21860;SDS011;11095;48.066;8.540;2023-07-20T00:52:58;7.38;;;3.17;;
21860;SDS011;11095;48.066;8.540;2023-07-20T00:55:24;5.07;;;3.15;;
21860;SDS011;11095;48.066;8.540;2023-07-20T00:57:51;5.20;;;3.30;;
21860;SDS011;11095;48.066;8.540;2023-07-20T01:00:17;4.10;;;3.05;;
21860;SDS011;11095;48.066;8.540;2023-07-20T01:02:43;5.05;;;2.92;;
21860;SDS011;11095;48.066;8.540;2023-07-20T01:05:09;4.20;;;3.00;;
21860;SDS011;11095;48.066;8.540;2023-07-20T01:07:54;5.40;;;3.22;;
21860;SDS011;11095;48.066;8.540;2023-07-20T01:10:25;3.80;;;3.20;;
21860;SDS011;11095;48.066;8.540;2023-07-20T01:12:58;5.35;;;3.05;;
21860;SDS011;11095;48.066;8.540;2023-07-20T01:15:26;4.28;;;3.10;;
21860;SDS011;11095;48.066;8.540;2023-07-20T01:17:52;3.88;;;2.70;;
21860;SDS011;11095;48.066;8.540;2023-07-20T01:20:18;3.65;;;2.90;;
21860;SDS011;11095;48.066;8.540;2023-07-20T01:33:48;3.35;;;2.80;;
21860;SDS011;11095;48.066;8.540;2023-07-20T01:36:16;4.18;;;2.90;;
21860;SDS011;11095;48.066;8.540;2023-07-20T01:38:43;3.45;;;2.80;;
21860;SDS011;11095;48.066;8.540;2023-07-20T01:41:09;4.45;;;3.00;;
21860;SDS011;11095;48.066;8.540;2023-07-20T01:43:36;6.78;;;3.17;;
21860;SDS011;11095;48.066;8.540;2023-07-20T01:46:01;3.28;;;2.60;;
21860;SDS011;11095;48.066;8.540;2023-07-20T01:48:27;4.35;;;3.00;;
21860;SDS011;11095;48.066;8.540;2023-07-20T01:50:53;3.70;;;2.75;;
21860;SDS011;11095;48.066;8.540;2023-07-20T01:53:19;5.45;;;3.00;;
21860;SDS011;11095;48.066;8.540;2023-07-20T01:55:45;4.35;;;2.85;;
21860;SDS011;11095;48.066;8.540;2023-07-20T01:58:11;3.72;;;3.20;;
21860;SDS011;11095;48.066;8.540;2023-07-20T02:00:37;4.00;;;3.03;;
21860;SDS011;11095;48.066;8.540;2023-07-20T02:03:03;3.92;;;2.65;;
21860;SDS011;11095;48.066;8.540;2023-07-20T02:05:29;3.83;;;2.92;;
21860;SDS011;11095;48.066;8.540;2023-07-20T02:07:54;4.45;;;2.80;;
21860;SDS011;11095;48.066;8.540;2023-07-20T02:10:20;5.95;;;2.67;;
21860;SDS011;11095;48.066;8.540;2023-07-20T02:12:46;3.38;;;2.60;;
21860;SDS011;11095;48.066;8.540;2023-07-20T02:15:12;4.50;;;3.08;;
21860;SDS011;11095;48.066;8.540;2023-07-20T02:17:39;4.68;;;2.83;;
21860;SDS011;11095;48.066;8.540;2023-07-20T02:20:06;5.40;;;3.05;;
21860;SDS011;11095;48.066;8.540;2023-07-20T02:22:36;4.65;;;3.08;;
21860;SDS011;11095;48.066;8.540;2023-07-20T02:25:06;4.20;;;3.00;;
21860;SDS011;11095;48.066;8.540;2023-07-20T02:27:35;3.05;;;2.72;;
21860;SDS011;11095;48.066;8.540;2023-07-20T02:30:01;5.53;;;2.90;;
21860;SDS011;11095;48.066;8.540;2023-07-20T02:32:28;4.80;;;2.53;;
21860;SDS011;11095;48.066;8.540;2023-07-20T02:34:54;4.47;;;3.15;;
21860;SDS011;11095;48.066;8.540;2023-07-20T02:37:20;6.60;;;3.00;;
21860;SDS011;11095;48.066;8.540;2023-07-20T02:39:45;5.72;;;2.88;;
21860;SDS011;11095;48.066;8.540;2023-07-20T02:42:11;3.80;;;2.58;;
21860;SDS011;11095;48.066;8.540;2023-07-20T02:44:36;3.75;;;2.78;;
21860;SDS011;11095;48.066;8.540;2023-07-20T02:47:02;4.05;;;2.70;;
21860;SDS011;11095;48.066;8.540;2023-07-20T02:49:27;4.05;;;2.65;;
21860;SDS011;11095;48.066;8.540;2023-07-20T02:51:53;4.35;;;2.50;;
21860;SDS011;11095;48.066;8.540;2023-07-20T02:54:19;3.58;;;2.75;;
21860;SDS011;11095;48.066;8.540;2023-07-20T02:56:45;4.55;;;2.78;;
21860;SDS011;11095;48.066;8.540;2023-07-20T02:59:10;4.13;;;3.05;;
21860;SDS011;11095;48.066;8.540;2023-07-20T03:01:36;5.28;;;3.10;;
21860;SDS011;11095;48.066;8.540;2023-07-20T03:04:01;3.45;;;2.92;;
21860;SDS011;11095;48.066;8.540;2023-07-20T03:06:27;4.28;;;2.75;;
21860;SDS011;11095;48.066;8.540;2023-07-20T03:08:53;4.07;;;2.70;;
21860;SDS011;11095;48.066;8.540;2023-07-20T03:11:19;3.75;;;2.85;;
21860;SDS011;11095;48.066;8.540;2023-07-20T03:13:45;4.38;;;2.80;;
21860;SDS011;11095;48.066;8.540;2023-07-20T03:16:12;4.20;;;2.88;;
21860;SDS011;11095;48.066;8.540;2023-07-20T03:18:40;4.32;;;2.95;;
21860;SDS011;11095;48.066;8.540;2023-07-20T03:21:09;4.38;;;2.95;;
21860;SDS011;11095;48.066;8.540;2023-07-20T03:23:38;4.57;;;2.58;;
21860;SDS011;11095;48.066;8.540;2023-07-20T03:26:05;4.80;;;3.08;;
21860;SDS011;11095;48.066;8.540;2023-07-20T03:28:33;3.40;;;2.80;;
21860;SDS011;11095;48.066;8.540;2023-07-20T03:30:59;3.45;;;2.67;;
21860;SDS011;11095;48.066;8.540;2023-07-20T03:33:25;3.58;;;2.90;;
21860;SDS011;11095;48.066;8.540;2023-07-20T03:35:52;3.78;;;2.60;;
21860;SDS011;11095;48.066;8.540;2023-07-20T03:38:19;4.00;;;3.03;;
21860;SDS011;11095;48.066;8.540;2023-07-20T03:40:51;2.70;;;2.42;;
21860;SDS011;11095;48.066;8.540;2023-07-20T03:43:17;3.78;;;2.50;;
21860;SDS011;11095;48.066;8.540;2023-07-20T03:45:43;3.67;;;2.85;;
21860;SDS011;11095;48.066;8.540;2023-07-20T03:48:10;3.28;;;2.47;;
21860;SDS011;11095;48.066;8.540;2023-07-20T03:50:36;4.38;;;2.67;;
21860;SDS011;11095;48.066;8.540;2023-07-20T03:53:02;4.78;;;2.80;;
21860;SDS011;11095;48.066;8.540;2023-07-20T03:55:28;4.05;;;2.75;;
21860;SDS011;11095;48.066;8.540;2023-07-20T03:57:53;4.07;;;3.00;;
21860;SDS011;11095;48.066;8.540;2023-07-20T04:00:19;3.17;;;2.70;;
21860;SDS011;11095;48.066;8.540;2023-07-20T04:02:44;3.97;;;2.72;;
21860;SDS011;11095;48.066;8.540;2023-07-20T04:05:10;3.00;;;2.65;;
21860;SDS011;11095;48.066;8.540;2023-07-20T04:07:36;3.03;;;2.72;;
21860;SDS011;11095;48.066;8.540;2023-07-20T04:10:02;3.17;;;2.65;;
21860;SDS011;11095;48.066;8.540;2023-07-20T04:12:27;11.57;;;3.25;;
21860;SDS011;11095;48.066;8.540;2023-07-20T04:14:53;2.90;;;2.60;;
21860;SDS011;11095;48.066;8.540;2023-07-20T04:17:18;3.25;;;2.65;;
21860;SDS011;11095;48.066;8.540;2023-07-20T04:19:44;3.58;;;2.58;;
21860;SDS011;11095;48.066;8.540;2023-07-20T04:22:10;3.47;;;2.90;;
21860;SDS011;11095;48.066;8.540;2023-07-20T04:24:35;6.47;;;2.80;;
21860;SDS011;11095;48.066;8.540;2023-07-20T04:27:01;5.72;;;2.97;;
21860;SDS011;11095;48.066;8.540;2023-07-20T04:29:27;4.53;;;2.85;;
21860;SDS011;11095;48.066;8.540;2023-07-20T04:31:52;5.82;;;3.15;;
21860;SDS011;11095;48.066;8.540;2023-07-20T04:34:18;6.63;;;3.05;;
21860;SDS011;11095;48.066;8.540;2023-07-20T04:36:43;6.20;;;3.33;;
21860;SDS011;11095;48.066;8.540;2023-07-20T04:39:09;4.32;;;3.05;;
21860;SDS011;11095;48.066;8.540;2023-07-20T04:41:35;3.65;;;2.92;;
21860;SDS011;11095;48.066;8.540;2023-07-20T04:44:00;4.10;;;3.03;;
21860;SDS011;11095;48.066;8.540;2023-07-20T04:46:26;3.95;;;3.10;;
21860;SDS011;11095;48.066;8.540;2023-07-20T04:48:52;5.95;;;3.75;;
21860;SDS011;11095;48.066;8.540;2023-07-20T04:51:17;7.28;;;3.85;;
21860;SDS011;11095;48.066;8.540;2023-07-20T04:53:46;9.52;;;3.50;;
21860;SDS011;11095;48.066;8.540;2023-07-20T04:56:14;4.63;;;3.03;;
21860;SDS011;11095;48.066;8.540;2023-07-20T04:58:40;6.40;;;3.35;;
21860;SDS011;11095;48.066;8.540;2023-07-20T05:01:05;6.32;;;3.15;;
21860;SDS011;11095;48.066;8.540;2023-07-20T05:03:33;4.10;;;2.67;;
21860;SDS011;11095;48.066;8.540;2023-07-20T05:05:58;4.55;;;2.78;;
21860;SDS011;11095;48.066;8.540;2023-07-20T05:08:24;4.25;;;2.90;;
21860;SDS011;11095;48.066;8.540;2023-07-20T05:10:50;4.13;;;2.83;;
21860;SDS011;11095;48.066;8.540;2023-07-20T05:13:16;3.30;;;2.70;;
21860;SDS011;11095;48.066;8.540;2023-07-20T05:15:41;3.72;;;2.70;;
21860;SDS011;11095;48.066;8.540;2023-07-20T05:18:07;3.40;;;2.58;;
21860;SDS011;11095;48.066;8.540;2023-07-20T05:20:34;5.20;;;2.85;;
21860;SDS011;11095;48.066;8.540;2023-07-20T05:23:00;3.45;;;2.55;;
21860;SDS011;11095;48.066;8.540;2023-07-20T05:25:26;2.75;;;2.50;;
21860;SDS011;11095;48.066;8.540;2023-07-20T05:27:52;4.05;;;2.53;;
21860;SDS011;11095;48.066;8.540;2023-07-20T05:30:17;3.65;;;2.50;;
21860;SDS011;11095;48.066;8.540;2023-07-20T05:32:43;3.00;;;2.50;;
21860;SDS011;11095;48.066;8.540;2023-07-20T05:35:12;5.32;;;3.00;;
21860;SDS011;11095;48.066;8.540;2023-07-20T05:37:39;3.90;;;2.80;;
21860;SDS011;11095;48.066;8.540;2023-07-20T05:40:05;4.45;;;2.70;;
21860;SDS011;11095;48.066;8.540;2023-07-20T05:42:32;3.97;;;2.83;;
21860;SDS011;11095;48.066;8.540;2023-07-20T05:44:58;4.57;;;2.92;;
21860;SDS011;11095;48.066;8.540;2023-07-20T05:47:23;4.03;;;2.85;;
21860;SDS011;11095;48.066;8.540;2023-07-20T05:49:49;4.68;;;2.92;;
21860;SDS011;11095;48.066;8.540;2023-07-20T05:52:15;4.57;;;2.40;;
21860;SDS011;11095;48.066;8.540;2023-07-20T05:54:40;4.45;;;2.60;;
21860;SDS011;11095;48.066;8.540;2023-07-20T05:57:06;5.00;;;3.15;;
21860;SDS011;11095;48.066;8.540;2023-07-20T05:59:32;3.28;;;2.38;;
21860;SDS011;11095;48.066;8.540;2023-07-20T06:01:58;3.50;;;2.38;;
21860;SDS011;11095;48.066;8.540;2023-07-20T06:04:23;5.13;;;2.40;;
21860;SDS011;11095;48.066;8.540;2023-07-20T06:06:49;3.30;;;2.22;;
21860;SDS011;11095;48.066;8.540;2023-07-20T06:09:15;3.58;;;2.40;;
21860;SDS011;11095;48.066;8.540;2023-07-20T06:11:40;5.97;;;2.70;;
21860;SDS011;11095;48.066;8.540;2023-07-20T06:14:06;4.65;;;2.33;;
21860;SDS011;11095;48.066;8.540;2023-07-20T06:16:32;6.97;;;2.30;;
21860;SDS011;11095;48.066;8.540;2023-07-20T06:18:59;3.22;;;2.38;;
21860;SDS011;11095;48.066;8.540;2023-07-20T06:21:25;5.22;;;2.20;;
21860;SDS011;11095;48.066;8.540;2023-07-20T06:23:51;2.53;;;1.83;;
21860;SDS011;11095;48.066;8.540;2023-07-20T06:26:16;4.18;;;2.30;;
21860;SDS011;11095;48.066;8.540;2023-07-20T06:28:42;4.03;;;2.40;;
21860;SDS011;11095;48.066;8.540;2023-07-20T06:31:07;4.13;;;2.17;;
21860;SDS011;11095;48.066;8.540;2023-07-20T06:33:33;4.30;;;2.25;;
21860;SDS011;11095;48.066;8.540;2023-07-20T06:35:59;2.97;;;2.22;;
21860;SDS011;11095;48.066;8.540;2023-07-20T06:38:25;2.90;;;1.90;;
21860;SDS011;11095;48.066;8.540;2023-07-20T06:40:51;2.55;;;1.75;;
21860;SDS011;11095;48.066;8.540;2023-07-20T06:43:16;4.75;;;2.13;;
21860;SDS011;11095;48.066;8.540;2023-07-20T06:45:43;3.70;;;2.05;;
21860;SDS011;11095;48.066;8.540;2023-07-20T06:48:08;3.17;;;2.10;;
21860;SDS011;11095;48.066;8.540;2023-07-20T06:50:34;2.67;;;1.98;;
21860;SDS011;11095;48.066;8.540;2023-07-20T06:53:00;3.50;;;2.20;;
21860;SDS011;11095;48.066;8.540;2023-07-20T06:55:29;4.22;;;2.13;;
21860;SDS011;11095;48.066;8.540;2023-07-20T06:57:55;4.35;;;2.13;;
21860;SDS011;11095;48.066;8.540;2023-07-20T07:00:20;2.55;;;1.85;;
21860;SDS011;11095;48.066;8.540;2023-07-20T07:02:46;2.50;;;1.70;;
21860;SDS011;11095;48.066;8.540;2023-07-20T07:05:12;3.95;;;1.85;;
21860;SDS011;11095;48.066;8.540;2023-07-20T07:07:39;3.22;;;1.90;;
21860;SDS011;11095;48.066;8.540;2023-07-20T07:10:05;2.28;;;1.67;;
21860;SDS011;11095;48.066;8.540;2023-07-20T07:12:31;1.50;;;1.33;;
21860;SDS011;11095;48.066;8.540;2023-07-20T07:14:57;1.80;;;1.50;;
21860;SDS011;11095;48.066;8.540;2023-07-20T07:17:23;2.28;;;1.40;;
21860;SDS011;11095;48.066;8.540;2023-07-20T07:19:49;4.32;;;1.90;;
21860;SDS011;11095;48.066;8.540;2023-07-20T07:22:17;2.30;;;1.67;;
21860;SDS011;11095;48.066;8.540;2023-07-20T07:24:43;4.10;;;1.73;;
21860;SDS011;11095;48.066;8.540;2023-07-20T07:27:09;1.90;;;1.58;;
21860;SDS011;11095;48.066;8.540;2023-07-20T07:29:34;3.72;;;2.17;;
21860;SDS011;11095;48.066;8.540;2023-07-20T07:32:00;3.70;;;1.95;;
21860;SDS011;11095;48.066;8.540;2023-07-20T07:34:26;2.67;;;1.70;;
21860;SDS011;11095;48.066;8.540;2023-07-20T07:36:52;2.53;;;1.60;;
21860;SDS011;11095;48.066;8.540;2023-07-20T07:39:18;3.65;;;1.70;;
21860;SDS011;11095;48.066;8.540;2023-07-20T07:41:44;3.50;;;1.88;;
21860;SDS011;11095;48.066;8.540;2023-07-20T07:44:10;2.70;;;1.75;;
21860;SDS011;11095;48.066;8.540;2023-07-20T07:46:35;4.15;;;1.65;;
21860;SDS011;11095;48.066;8.540;2023-07-20T07:49:01;2.28;;;1.60;;
21860;SDS011;11095;48.066;8.540;2023-07-20T07:51:27;4.13;;;2.00;;
21860;SDS011;11095;48.066;8.540;2023-07-20T07:53:52;2.47;;;2.00;;
21860;SDS011;11095;48.066;8.540;2023-07-20T07:56:18;3.75;;;2.13;;
21860;SDS011;11095;48.066;8.540;2023-07-20T07:58:47;2.80;;;2.15;;
21860;SDS011;11095;48.066;8.540;2023-07-20T08:01:13;2.00;;;1.80;;
21860;SDS011;11095;48.066;8.540;2023-07-20T08:03:39;2.28;;;1.92;;
21860;SDS011;11095;48.066;8.540;2023-07-20T08:06:05;2.10;;;1.90;;
21860;SDS011;11095;48.066;8.540;2023-07-20T08:08:31;1.80;;;1.50;;
21860;SDS011;11095;48.066;8.540;2023-07-20T08:10:57;2.33;;;1.70;;
21860;SDS011;11095;48.066;8.540;2023-07-20T08:13:23;2.95;;;1.50;;
21860;SDS011;11095;48.066;8.540;2023-07-20T08:15:50;1.65;;;1.50;;
21860;SDS011;11095;48.066;8.540;2023-07-20T08:18:19;2.25;;;1.60;;
21860;SDS011;11095;48.066;8.540;2023-07-20T08:20:45;2.13;;;1.70;;
21860;SDS011;11095;48.066;8.540;2023-07-20T08:23:11;2.47;;;1.40;;
21860;SDS011;11095;48.066;8.540;2023-07-20T08:25:37;4.93;;;1.67;;
21860;SDS011;11095;48.066;8.540;2023-07-20T08:28:04;3.35;;;1.92;;
21860;SDS011;11095;48.066;8.540;2023-07-20T08:30:39;2.67;;;1.50;;
21860;SDS011;11095;48.066;8.540;2023-07-20T08:33:10;2.05;;;1.73;;
21860;SDS011;11095;48.066;8.540;2023-07-20T08:35:36;3.45;;;1.63;;
21860;SDS011;11095;48.066;8.540;2023-07-20T08:38:02;2.95;;;1.70;;
21860;SDS011;11095;48.066;8.540;2023-07-20T08:40:29;2.10;;;1.50;;
21860;SDS011;11095;48.066;8.540;2023-07-20T08:42:59;2.05;;;1.45;;
21860;SDS011;11095;48.066;8.540;2023-07-20T08:45:28;2.85;;;1.75;;
21860;SDS011;11095;48.066;8.540;2023-07-20T08:47:55;2.60;;;1.50;;
21860;SDS011;11095;48.066;8.540;2023-07-20T08:50:23;3.00;;;1.52;;
21860;SDS011;11095;48.066;8.540;2023-07-20T08:52:52;4.18;;;1.60;;
21860;SDS011;11095;48.066;8.540;2023-07-20T08:55:22;2.28;;;1.40;;
21860;SDS011;11095;48.066;8.540;2023-07-20T08:57:55;3.10;;;1.30;;
21860;SDS011;11095;48.066;8.540;2023-07-20T09:00:22;2.55;;;1.58;;
21860;SDS011;11095;48.066;8.540;2023-07-20T09:02:49;2.88;;;1.40;;
21860;SDS011;11095;48.066;8.540;2023-07-20T09:05:16;2.15;;;1.63;;
21860;SDS011;11095;48.066;8.540;2023-07-20T09:07:43;3.70;;;1.88;;
21860;SDS011;11095;48.066;8.540;2023-07-20T09:10:08;3.28;;;1.98;;
21860;SDS011;11095;48.066;8.540;2023-07-20T09:12:35;3.58;;;1.80;;
21860;SDS011;11095;48.066;8.540;2023-07-20T09:15:03;2.90;;;1.42;;
21860;SDS011;11095;48.066;8.540;2023-07-20T09:17:32;2.25;;;1.30;;
21860;SDS011;11095;48.066;8.540;2023-07-20T09:19:58;2.65;;;1.50;;
21860;SDS011;11095;48.066;8.540;2023-07-20T09:22:29;2.42;;;1.33;;
21860;SDS011;11095;48.066;8.540;2023-07-20T09:24:56;2.72;;;1.42;;
21860;SDS011;11095;48.066;8.540;2023-07-20T09:27:22;1.63;;;1.20;;
21860;SDS011;11095;48.066;8.540;2023-07-20T09:30:01;5.82;;;1.73;;
21860;SDS011;11095;48.066;8.540;2023-07-20T09:32:27;3.92;;;1.70;;
21860;SDS011;11095;48.066;8.540;2023-07-20T09:34:52;2.13;;;1.40;;
21860;SDS011;11095;48.066;8.540;2023-07-20T09:37:21;1.35;;;1.20;;
21860;SDS011;11095;48.066;8.540;2023-07-20T09:39:47;1.50;;;1.30;;
21860;SDS011;11095;48.066;8.540;2023-07-20T09:42:16;2.10;;;1.23;;
21860;SDS011;11095;48.066;8.540;2023-07-20T09:44:44;3.47;;;1.50;;
21860;SDS011;11095;48.066;8.540;2023-07-20T09:47:10;2.08;;;1.50;;
21860;SDS011;11095;48.066;8.540;2023-07-20T09:49:39;3.20;;;1.40;;
21860;SDS011;11095;48.066;8.540;2023-07-20T09:52:06;2.30;;;1.20;;
21860;SDS011;11095;48.066;8.540;2023-07-20T09:54:39;1.92;;;1.10;;
21860;SDS011;11095;48.066;8.540;2023-07-20T09:59:32;2.47;;;1.42;;
21860;SDS011;11095;48.066;8.540;2023-07-20T10:01:58;2.15;;;1.20;;
21860;SDS011;11095;48.066;8.540;2023-07-20T10:04:29;1.90;;;1.40;;
21860;SDS011;11095;48.066;8.540;2023-07-20T10:06:55;2.08;;;1.48;;
21860;SDS011;11095;48.066;8.540;2023-07-20T10:09:24;1.95;;;1.38;;
21860;SDS011;11095;48.066;8.540;2023-07-20T10:11:51;2.70;;;1.42;;
21860;SDS011;11095;48.066;8.540;2023-07-20T10:14:19;2.38;;;1.40;;
21860;SDS011;11095;48.066;8.540;2023-07-20T10:16:46;1.65;;;1.33;;
21860;SDS011;11095;48.066;8.540;2023-07-20T10:22:07;1.80;;;1.35;;
21860;SDS011;11095;48.066;8.540;2023-07-20T10:24:39;2.95;;;1.40;;
21860;SDS011;11095;48.066;8.540;2023-07-20T10:27:06;2.22;;;1.50;;
21860;SDS011;11095;48.066;8.540;2023-07-20T10:29:31;2.88;;;1.40;;
21860;SDS011;11095;48.066;8.540;2023-07-20T10:31:57;2.20;;;1.40;;
21860;SDS011;11095;48.066;8.540;2023-07-20T10:34:23;3.15;;;1.33;;
21860;SDS011;11095;48.066;8.540;2023-07-20T10:36:49;2.03;;;1.40;;
21860;SDS011;11095;48.066;8.540;2023-07-20T10:39:25;1.65;;;1.25;;
21860;SDS011;11095;48.066;8.540;2023-07-20T10:41:59;2.03;;;1.20;;
21860;SDS011;11095;48.066;8.540;2023-07-20T10:44:28;1.45;;;1.30;;
21860;SDS011;11095;48.066;8.540;2023-07-20T10:46:58;2.83;;;1.25;;
21860;SDS011;11095;48.066;8.540;2023-07-20T10:49:25;2.08;;;1.38;;
21860;SDS011;11095;48.066;8.540;2023-07-20T10:51:58;3.25;;;1.45;;
21860;SDS011;11095;48.066;8.540;2023-07-20T10:56:54;2.13;;;1.23;;
21860;SDS011;11095;48.066;8.540;2023-07-20T11:01:59;2.90;;;1.43;;
21860;SDS011;11095;48.066;8.540;2023-07-20T11:04:59;2.30;;;1.42;;
21860;SDS011;11095;48.066;8.540;2023-07-20T11:07:36;3.38;;;1.50;;
21860;SDS011;11095;48.066;8.540;2023-07-20T11:10:12;2.35;;;1.30;;
21860;SDS011;11095;48.066;8.540;2023-07-20T11:12:40;2.88;;;1.42;;
21860;SDS011;11095;48.066;8.540;2023-07-20T11:15:05;1.60;;;1.40;;
21860;SDS011;11095;48.066;8.540;2023-07-20T11:17:32;2.45;;;1.60;;
21860;SDS011;11095;48.066;8.540;2023-07-20T11:19:58;3.42;;;1.38;;
21860;SDS011;11095;48.066;8.540;2023-07-20T11:22:26;1.65;;;1.15;;
21860;SDS011;11095;48.066;8.540;2023-07-20T11:24:54;2.08;;;1.30;;
21860;SDS011;11095;48.066;8.540;2023-07-20T11:27:21;2.88;;;1.40;;
21860;SDS011;11095;48.066;8.540;2023-07-20T11:29:49;2.27;;;1.67;;
21860;SDS011;11095;48.066;8.540;2023-07-20T11:32:24;2.13;;;1.17;;
21860;SDS011;11095;48.066;8.540;2023-07-20T11:34:49;1.70;;;1.33;;
21860;SDS011;11095;48.066;8.540;2023-07-20T11:37:16;1.58;;;1.20;;
21860;SDS011;11095;48.066;8.540;2023-07-20T11:39:42;2.45;;;1.40;;
21860;SDS011;11095;48.066;8.540;2023-07-20T11:42:08;1.25;;;1.15;;
21860;SDS011;11095;48.066;8.540;2023-07-20T11:44:33;3.38;;;1.48;;
21860;SDS011;11095;48.066;8.540;2023-07-20T11:46:59;1.70;;;1.33;;
21860;SDS011;11095;48.066;8.540;2023-07-20T11:49:26;1.55;;;1.35;;
21860;SDS011;11095;48.066;8.540;2023-07-20T11:51:52;3.40;;;1.42;;
21860;SDS011;11095;48.066;8.540;2023-07-20T11:54:18;2.70;;;1.50;;
21860;SDS011;11095;48.066;8.540;2023-07-20T11:56:43;3.58;;;1.65;;
21860;SDS011;11095;48.066;8.540;2023-07-20T11:59:09;2.38;;;1.50;;
21860;SDS011;11095;48.066;8.540;2023-07-20T12:01:35;1.60;;;1.33;;
21860;SDS011;11095;48.066;8.540;2023-07-20T12:04:01;2.40;;;1.40;;
21860;SDS011;11095;48.066;8.540;2023-07-20T12:06:28;1.88;;;1.40;;
21860;SDS011;11095;48.066;8.540;2023-07-20T12:08:57;1.50;;;1.30;;
21860;SDS011;11095;48.066;8.540;2023-07-20T12:11:33;2.30;;;1.20;;
21860;SDS011;11095;48.066;8.540;2023-07-20T12:13:59;3.25;;;1.40;;
21860;SDS011;11095;48.066;8.540;2023-07-20T12:16:28;1.30;;;1.20;;
21860;SDS011;11095;48.066;8.540;2023-07-20T12:21:33;2.55;;;1.42;;
21860;SDS011;11095;48.066;8.540;2023-07-20T12:24:01;2.75;;;1.40;;
21860;SDS011;11095;48.066;8.540;2023-07-20T12:26:28;2.08;;;1.40;;
21860;SDS011;11095;48.066;8.540;2023-07-20T12:28:55;1.77;;;1.50;;
21860;SDS011;11095;48.066;8.540;2023-07-20T12:31:20;2.00;;;1.15;;
21860;SDS011;11095;48.066;8.540;2023-07-20T12:33:47;2.08;;;1.30;;
21860;SDS011;11095;48.066;8.540;2023-07-20T12:36:14;1.73;;;1.38;;
21860;SDS011;11095;48.066;8.540;2023-07-20T12:38:39;2.83;;;1.10;;
21860;SDS011;11095;48.066;8.540;2023-07-20T12:41:06;3.33;;;2.00;;
21860;SDS011;11095;48.066;8.540;2023-07-20T12:43:32;1.42;;;1.30;;
21860;SDS011;11095;48.066;8.540;2023-07-20T12:45:58;2.00;;;1.40;;
21860;SDS011;11095;48.066;8.540;2023-07-20T12:48:24;1.90;;;1.40;;
21860;SDS011;11095;48.066;8.540;2023-07-20T12:50:50;1.40;;;1.30;;
21860;SDS011;11095;48.066;8.540;2023-07-20T12:53:15;1.98;;;1.20;;
21860;SDS011;11095;48.066;8.540;2023-07-20T12:55:41;1.70;;;1.27;;
21860;SDS011;11095;48.066;8.540;2023-07-20T12:58:07;1.63;;;1.30;;
21860;SDS011;11095;48.066;8.540;2023-07-20T13:00:33;1.55;;;1.27;;
21860;SDS011;11095;48.066;8.540;2023-07-20T13:02:59;1.70;;;1.33;;
21860;SDS011;11095;48.066;8.540;2023-07-20T13:05:25;2.00;;;1.40;;
21860;SDS011;11095;48.066;8.540;2023-07-20T13:07:50;2.53;;;1.30;;
21860;SDS011;11095;48.066;8.540;2023-07-20T13:10:16;1.73;;;1.50;;
21860;SDS011;11095;48.066;8.540;2023-07-20T13:12:43;2.35;;;1.40;;
21860;SDS011;11095;48.066;8.540;2023-07-20T13:15:09;1.83;;;1.27;;
21860;SDS011;11095;48.066;8.540;2023-07-20T13:17:36;1.65;;;1.20;;
21860;SDS011;11095;48.066;8.540;2023-07-20T13:20:04;1.40;;;1.23;;
21860;SDS011;11095;48.066;8.540;2023-07-20T13:22:31;2.17;;;1.60;;
21860;SDS011;11095;48.066;8.540;2023-07-20T13:24:57;2.17;;;1.52;;
21860;SDS011;11095;48.066;8.540;2023-07-20T13:27:23;1.52;;;1.42;;
21860;SDS011;11095;48.066;8.540;2023-07-20T13:29:50;1.27;;;1.15;;
21860;SDS011;11095;48.066;8.540;2023-07-20T13:32:16;2.63;;;1.45;;
21860;SDS011;11095;48.066;8.540;2023-07-20T13:34:45;1.30;;;1.20;;
21860;SDS011;11095;48.066;8.540;2023-07-20T13:37:11;1.75;;;1.45;;
21860;SDS011;11095;48.066;8.540;2023-07-20T13:39:37;1.33;;;1.13;;
21860;SDS011;11095;48.066;8.540;2023-07-20T13:42:04;3.05;;;1.60;;
21860;SDS011;11095;48.066;8.540;2023-07-20T13:44:33;2.00;;;1.40;;
21860;SDS011;11095;48.066;8.540;2023-07-20T13:46:59;1.95;;;1.50;;
21860;SDS011;11095;48.066;8.540;2023-07-20T13:49:25;2.58;;;1.60;;
21860;SDS011;11095;48.066;8.540;2023-07-20T13:51:51;1.50;;;1.40;;
21860;SDS011;11095;48.066;8.540;2023-07-20T13:54:17;3.80;;;1.60;;
21860;SDS011;11095;48.066;8.540;2023-07-20T13:56:43;2.38;;;1.50;;
21860;SDS011;11095;48.066;8.540;2023-07-20T13:59:08;2.28;;;1.42;;
21860;SDS011;11095;48.066;8.540;2023-07-20T14:01:34;2.63;;;1.30;;
21860;SDS011;11095;48.066;8.540;2023-07-20T14:04:00;1.55;;;1.20;;
21860;SDS011;11095;48.066;8.540;2023-07-20T14:06:29;2.58;;;1.40;;
21860;SDS011;11095;48.066;8.540;2023-07-20T14:08:55;1.88;;;1.35;;
21860;SDS011;11095;48.066;8.540;2023-07-20T14:11:20;2.45;;;1.50;;
21860;SDS011;11095;48.066;8.540;2023-07-20T14:13:46;1.85;;;1.33;;
21860;SDS011;11095;48.066;8.540;2023-07-20T14:16:12;1.52;;;1.23;;
21860;SDS011;11095;48.066;8.540;2023-07-20T14:18:38;2.67;;;1.40;;
21860;SDS011;11095;48.066;8.540;2023-07-20T14:21:03;1.63;;;1.40;;
21860;SDS011;11095;48.066;8.540;2023-07-20T14:23:31;1.35;;;1.25;;
21860;SDS011;11095;48.066;8.540;2023-07-20T14:25:57;1.88;;;1.30;;
21860;SDS011;11095;48.066;8.540;2023-07-20T14:28:24;1.85;;;1.25;;
21860;SDS011;11095;48.066;8.540;2023-07-20T14:30:49;3.05;;;1.48;;
21860;SDS011;11095;48.066;8.540;2023-07-20T14:33:15;1.65;;;1.30;;
21860;SDS011;11095;48.066;8.540;2023-07-20T14:35:41;2.58;;;1.33;;
21860;SDS011;11095;48.066;8.540;2023-07-20T14:38:06;1.77;;;1.35;;
21860;SDS011;11095;48.066;8.540;2023-07-20T14:40:32;1.50;;;1.30;;
21860;SDS011;11095;48.066;8.540;2023-07-20T14:42:58;2.58;;;1.45;;
21860;SDS011;11095;48.066;8.540;2023-07-20T14:45:26;2.30;;;1.50;;
21860;SDS011;11095;48.066;8.540;2023-07-20T14:47:54;2.20;;;1.20;;
21860;SDS011;11095;48.066;8.540;2023-07-20T14:50:20;1.92;;;1.50;;
21860;SDS011;11095;48.066;8.540;2023-07-20T14:52:46;1.25;;;1.15;;
21860;SDS011;11095;48.066;8.540;2023-07-20T14:55:12;2.00;;;1.83;;
21860;SDS011;11095;48.066;8.540;2023-07-20T14:57:38;2.75;;;1.50;;
21860;SDS011;11095;48.066;8.540;2023-07-20T15:00:04;1.70;;;1.60;;
21860;SDS011;11095;48.066;8.540;2023-07-20T15:02:35;1.88;;;1.60;;
21860;SDS011;11095;48.066;8.540;2023-07-20T15:05:02;2.40;;;1.42;;
21860;SDS011;11095;48.066;8.540;2023-07-20T15:07:28;2.10;;;1.60;;
21860;SDS011;11095;48.066;8.540;2023-07-20T15:09:53;2.20;;;1.70;;